Time;durP1;ratioP1;P1;durP2;ratioP2;P2;SDS_P1;SDS_P2;PMS_P1;PMS_P2;Temp;Humidity;BMP_temperature;BMP_pressure;BME280_temperature;BME280_humidity;BME280_pressure;Samples;Min_cycle;Max_cycle;Signal;HPM_P1;HPM_P2
2021/04/15 00:02:00;;;;;;;4.97;3.37;;;5.70;99.90;;;;;;5114181;28;20188;-82
2021/04/15 00:04:26;;;;;;;8.00;3.80;;;5.60;99.90;;;;;;5114205;28;20173;-82
2021/04/15 00:06:52;;;;;;;7.87;4.27;;;5.60;99.90;;;;;;5112758;28;20191;-82
2021/04/15 00:09:20;;;;;;;7.83;3.33;;;5.60;99.90;;;;;;5112723;28;20176;-82
2021/04/15 00:11:47;;;;;;;10.73;3.07;;;5.60;99.90;;;;;;5112162;28;20205;-81
2021/04/15 00:14:14;;;;;;;12.33;4.20;;;5.50;99.90;;;;;;5113294;27;20268;-81
2021/04/15 00:16:40;;;;;;;15.77;3.63;;;5.50;99.90;;;;;;5114121;28;20177;-83
2021/04/15 00:19:08;;;;;;;7.17;3.47;;;5.50;99.90;;;;;;5112753;28;20188;-83
2021/04/15 00:21:34;;;;;;;6.47;3.50;;;5.50;99.90;;;;;;5113805;28;20634;-83
2021/04/15 00:23:59;;;;;;;8.73;3.27;;;5.50;99.90;;;;;;5112144;28;20225;-83
2021/04/15 00:26:26;;;;;;;3.37;2.73;;;5.40;99.90;;;;;;5112586;28;20213;-83
2021/04/15 00:28:54;;;;;;;7.40;3.00;;;5.20;99.90;;;;;;5114194;28;20172;-83
2021/04/15 00:31:20;;;;;;;5.40;2.67;;;5.10;99.90;;;;;;5113511;28;20280;-83
2021/04/15 00:33:46;;;;;;;4.87;3.17;;;5.20;99.90;;;;;;5114106;28;20189;-82
2021/04/15 00:36:12;;;;;;;5.77;2.97;;;5.10;99.90;;;;;;5113945;28;20176;-83
2021/04/15 00:38:39;;;;;;;6.20;2.83;;;5.10;99.90;;;;;;5114323;28;20161;-83
2021/04/15 00:41:07;;;;;;;6.00;2.90;;;5.20;99.90;;;;;;5112278;28;20174;-82
2021/04/15 00:43:37;;;;;;;3.00;2.33;;;5.20;99.90;;;;;;5112337;28;20169;-82
2021/04/15 00:46:23;;;;;;;5.33;2.87;;;5.20;99.90;;;;;;5113781;28;20232;-83
2021/04/15 00:48:50;;;;;;;8.87;3.67;;;5.20;99.90;;;;;;5113884;28;20621;-83
2021/04/15 00:51:27;;;;;;;6.00;3.10;;;5.10;99.90;;;;;;5111892;28;20669;-83
2021/04/15 00:54:02;;;;;;;4.73;2.47;;;5.10;99.90;;;;;;5116293;28;20196;-83
2021/04/15 00:56:28;;;;;;;6.07;2.70;;;5.10;99.90;;;;;;5117618;28;20175;-83
2021/04/15 00:58:54;;;;;;;10.00;3.20;;;5.10;99.90;;;;;;5117368;28;20256;-83
2021/04/15 01:01:20;;;;;;;3.70;2.27;;;5.10;99.90;;;;;;5117263;28;20227;-83
2021/04/15 01:03:46;;;;;;;2.93;2.43;;;5.10;99.90;;;;;;5115901;28;20177;-82
2021/04/15 01:06:13;;;;;;;5.33;2.77;;;5.10;99.90;;;;;;5117676;28;20176;-83
2021/04/15 01:08:40;;;;;;;2.43;2.07;;;5.00;99.90;;;;;;5117200;28;20169;-83
2021/04/15 01:11:25;;;;;;;4.97;2.57;;;5.00;99.90;;;;;;5116651;28;20284;-83
2021/04/15 01:13:51;;;;;;;4.47;2.43;;;5.10;99.90;;;;;;5116169;28;20669;-83
2021/04/15 01:16:25;;;;;;;5.77;2.30;;;4.90;99.90;;;;;;5117231;28;20192;-83
2021/04/15 01:19:18;;;;;;;9.87;2.30;;;4.80;99.90;;;;;;5115522;28;20204;-83
2021/04/15 01:22:08;;;;;;;4.53;2.40;;;4.80;99.90;;;;;;5115665;28;20645;-83
2021/04/15 01:25:03;;;;;;;4.50;2.40;;;4.80;99.90;;;;;;5115923;28;20211;-83
2021/04/15 01:28:03;;;;;;;13.53;2.47;;;4.80;99.90;;;;;;5098221;28;20174;-82
2021/04/15 01:30:40;;;;;;;7.33;2.17;;;4.70;99.90;;;;;;5058338;28;20337;-83
2021/04/15 01:33:05;;;;;;;6.50;2.63;;;4.80;99.90;;;;;;5096669;28;20178;-83
2021/04/15 01:35:36;;;;;;;8.23;2.43;;;4.80;99.90;;;;;;5096277;28;20621;-83
2021/04/15 01:38:09;;;;;;;3.57;2.33;;;4.70;99.90;;;;;;5096267;28;20186;-82
2021/04/15 01:40:50;;;;;;;4.93;2.40;;;4.70;99.90;;;;;;5148427;27;20173;-83
2021/04/15 01:43:18;;;;;;;3.57;2.50;;;4.70;99.90;;;;;;5135179;27;20176;-83
2021/04/15 01:45:53;;;;;;;7.13;2.63;;;4.80;99.90;;;;;;5135958;27;20190;-83
2021/04/15 01:48:30;;;;;;;3.13;2.13;;;4.80;99.90;;;;;;5137286;27;20148;-83
2021/04/15 01:51:01;;;;;;;5.87;2.50;;;4.70;99.90;;;;;;5115626;28;20191;-83
2021/04/15 01:53:32;;;;;;;6.57;2.60;;;4.60;99.90;;;;;;5116294;28;20525;-83
2021/04/15 01:56:25;;;;;;;4.30;2.60;;;4.60;99.90;;;;;;5115166;28;20613;-83
2021/04/15 01:59:08;;;;;;;7.47;2.70;;;4.60;99.90;;;;;;5114107;28;20214;-83
2021/04/15 02:01:40;;;;;;;5.17;2.57;;;4.60;99.90;;;;;;5114925;28;20262;-83
2021/04/15 02:04:09;;;;;;;6.97;2.60;;;4.70;99.90;;;;;;5114842;28;20158;-83
2021/04/15 02:06:41;;;;;;;6.33;2.67;;;4.70;99.90;;;;;;5116312;28;20515;-83
2021/04/15 02:09:10;;;;;;;4.93;2.30;;;4.70;99.90;;;;;;5115608;28;20229;-83
2021/04/15 02:11:51;;;;;;;4.90;2.77;;;4.80;99.90;;;;;;5114618;28;20631;-83
2021/04/15 02:14:21;;;;;;;4.13;2.50;;;4.80;99.90;;;;;;5114905;28;20218;-83
2021/04/15 02:16:51;;;;;;;11.73;2.57;;;4.80;99.90;;;;;;5115852;28;20166;-83
2021/04/15 02:19:42;;;;;;;7.13;2.77;;;4.80;99.90;;;;;;5115927;28;20165;-83
2021/04/15 02:22:29;;;;;;;9.57;2.70;;;4.80;99.90;;;;;;5115589;28;20386;-85
2021/04/15 02:25:08;;;;;;;14.83;3.97;;;4.80;99.90;;;;;;5116089;28;20157;-83
2021/04/15 02:28:01;;;;;;;6.57;3.00;;;4.70;99.90;;;;;;5115406;28;20173;-83
2021/04/15 02:30:40;;;;;;;5.47;2.43;;;4.70;99.90;;;;;;5115766;28;20196;-83
2021/04/15 02:33:12;;;;;;;5.60;2.83;;;4.70;99.90;;;;;;5115641;28;20629;-83
2021/04/15 02:35:43;;;;;;;8.30;2.70;;;4.60;99.90;;;;;;5114189;28;20530;-83
2021/04/15 02:38:10;;;;;;;6.00;3.20;;;4.50;99.90;;;;;;5115417;28;20158;-83
2021/04/15 02:40:41;;;;;;;4.80;3.17;;;4.50;99.90;;;;;;5115612;28;20162;-83
2021/04/15 02:43:17;;;;;;;6.37;3.50;;;4.50;99.90;;;;;;5115383;28;20585;-83
2021/04/15 02:45:48;;;;;;;9.87;2.97;;;4.40;99.90;;;;;;5114025;28;20165;-83
2021/04/15 02:48:14;;;;;;;4.33;3.20;;;4.50;99.90;;;;;;5115113;28;20610;-82
2021/04/15 02:50:41;;;;;;;9.63;3.47;;;4.40;99.90;;;;;;5114958;28;20288;-83
2021/04/15 02:53:15;;;;;;;5.77;3.60;;;4.40;99.90;;;;;;5115313;28;20162;-83
2021/04/15 02:56:11;;;;;;;6.63;3.03;;;4.30;99.90;;;;;;5115213;28;20161;-83
2021/04/15 02:58:47;;;;;;;9.37;3.30;;;4.20;99.90;;;;;;5106590;28;20178;-83
2021/04/15 03:01:17;;;;;;;6.43;3.40;;;4.20;99.90;;;;;;5113767;28;20598;-83
2021/04/15 03:03:48;;;;;;;5.17;3.27;;;4.30;99.90;;;;;;5115431;28;20193;-83
2021/04/15 03:06:23;;;;;;;5.20;3.27;;;4.40;99.90;;;;;;5113552;28;20172;-82
2021/04/15 03:08:54;;;;;;;12.43;3.77;;;4.40;99.90;;;;;;5114972;28;20248;-83
2021/04/15 03:11:37;;;;;;;9.67;3.83;;;4.50;99.90;;;;;;5113896;28;20254;-83
2021/04/15 03:14:08;;;;;;;5.53;3.70;;;4.50;99.90;;;;;;5114901;28;20161;-83
2021/04/15 03:16:40;;;;;;;8.23;3.70;;;4.40;99.90;;;;;;5114243;28;20154;-83
2021/04/15 03:19:33;;;;;;;7.77;3.60;;;4.50;99.90;;;;;;5113992;28;20165;-83
2021/04/15 03:22:13;;;;;;;10.10;3.67;;;4.50;99.90;;;;;;5103601;28;20189;-83
2021/04/15 03:24:43;;;;;;;5.07;3.67;;;4.60;99.90;;;;;;5113272;28;20169;-82
2021/04/15 03:27:39;;;;;;;8.13;3.80;;;4.60;99.90;;;;;;5114948;28;20196;-83
2021/04/15 03:30:21;;;;;;;8.30;4.00;;;4.60;99.90;;;;;;5113269;28;20195;-83
2021/04/15 03:33:02;;;;;;;5.40;3.93;;;4.60;99.90;;;;;;5114403;28;20197;-83
2021/04/15 03:35:32;;;;;;;8.37;4.07;;;4.60;99.90;;;;;;5114170;28;20248;-83
2021/04/15 03:38:09;;;;;;;5.57;4.07;;;4.60;99.90;;;;;;5113383;28;20683;-83
2021/04/15 03:40:37;;;;;;;8.87;3.63;;;4.50;99.90;;;;;;5114646;28;20158;-83
2021/04/15 03:43:08;;;;;;;7.23;4.70;;;4.50;99.90;;;;;;5113234;28;20162;-83
2021/04/15 03:45:43;;;;;;;4.77;3.53;;;4.50;99.90;;;;;;5114517;28;20169;-83
2021/04/15 03:48:14;;;;;;;7.00;4.13;;;4.50;99.90;;;;;;5114549;28;20157;-83
2021/04/15 03:50:53;;;;;;;5.30;3.83;;;4.40;99.90;;;;;;5112817;28;20200;-82
2021/04/15 03:53:30;;;;;;;5.10;4.07;;;4.40;99.90;;;;;;5114860;28;20158;-83
2021/04/15 03:56:00;;;;;;;7.73;4.27;;;4.40;99.90;;;;;;5112632;28;20571;-83
2021/04/15 03:58:41;;;;;;;8.07;3.93;;;4.40;99.90;;;;;;5114693;28;20180;-84
2021/04/15 04:01:20;;;;;;;6.70;4.23;;;4.40;99.90;;;;;;5113196;28;20214;-83
2021/04/15 04:04:08;;;;;;;15.97;4.70;;;4.20;99.90;;;;;;5114392;28;20200;-83
2021/04/15 04:06:41;;;;;;;5.20;3.90;;;4.10;99.90;;;;;;5112830;28;20683;-83
2021/04/15 04:09:37;;;;;;;12.03;4.23;;;4.20;99.90;;;;;;5114337;28;20161;-83
2021/04/15 04:12:07;;;;;;;7.00;4.87;;;4.20;99.90;;;;;;5114100;28;20231;-84
2021/04/15 04:14:38;;;;;;;14.13;4.90;;;4.20;99.90;;;;;;5113710;28;20197;-83
2021/04/15 04:17:14;;;;;;;9.63;4.40;;;4.20;99.90;;;;;;5113904;28;20248;-83
2021/04/15 04:19:47;;;;;;;5.80;4.43;;;4.20;99.90;;;;;;5112919;28;20184;-83
2021/04/15 04:22:33;;;;;;;10.20;5.13;;;4.20;99.90;;;;;;5112998;28;20181;-83
2021/04/15 04:25:25;;;;;;;5.87;4.97;;;4.20;99.90;;;;;;5113703;28;20227;-83
2021/04/15 04:28:10;;;;;;;11.00;5.03;;;4.20;99.90;;;;;;5115920;28;20177;-83
2021/04/15 04:31:07;;;;;;;10.67;5.13;;;4.20;99.90;;;;;;5118362;28;20234;-83
2021/04/15 04:33:42;;;;;;;6.03;4.37;;;4.30;99.90;;;;;;5118294;28;20629;-83
2021/04/15 04:36:10;;;;;;;6.23;4.80;;;4.20;99.90;;;;;;5116352;28;20190;-83
2021/04/15 04:38:37;;;;;;;6.13;4.53;;;4.30;99.90;;;;;;5116726;28;20585;-84
2021/04/15 04:41:28;;;;;;;14.90;5.10;;;4.30;99.90;;;;;;5118145;28;20176;-83
2021/04/15 04:44:02;;;;;;;7.87;5.00;;;4.20;99.90;;;;;;5103906;28;20189;-83
2021/04/15 04:46:30;;;;;;;5.67;4.27;;;4.10;99.90;;;;;;5100265;28;20510;-83
2021/04/15 04:49:01;;;;;;;12.83;4.80;;;4.10;99.90;;;;;;5117944;28;20171;-83
2021/04/15 04:51:45;;;;;;;13.20;5.87;;;4.00;99.90;;;;;;5118031;28;20181;-83
2021/04/15 04:54:11;;;;;;;13.80;5.67;;;3.90;99.90;;;;;;5117248;28;20161;-83
2021/04/15 04:56:44;;;;;;;8.43;6.30;;;4.00;99.90;;;;;;5117809;28;20162;-83
2021/04/15 04:59:21;;;;;;;11.67;6.30;;;4.10;99.90;;;;;;5117725;28;20253;-83
2021/04/15 05:01:47;;;;;;;11.60;5.67;;;4.10;99.90;;;;;;5117191;28;20687;-82
2021/04/15 05:04:12;;;;;;;9.63;5.73;;;4.10;99.90;;;;;;5126593;27;20196;-83
2021/04/15 05:06:41;;;;;;;8.80;5.57;;;4.10;99.90;;;;;;5137877;27;20165;-83
2021/04/15 05:09:25;;;;;;;9.97;5.70;;;4.10;99.90;;;;;;5136693;27;20172;-83
2021/04/15 05:11:52;;;;;;;14.60;6.00;;;4.10;99.90;;;;;;5133090;27;20197;-83
2021/04/15 05:14:21;;;;;;;9.20;5.20;;;4.20;99.90;;;;;;5095734;28;20182;-83
2021/04/15 05:17:14;;;;;;;7.33;5.80;;;4.20;99.90;;;;;;5112964;28;20173;-83
2021/04/15 05:19:40;;;;;;;8.47;5.60;;;4.20;99.90;;;;;;5096471;28;20157;-83
2021/04/15 05:22:07;;;;;;;12.43;6.27;;;4.20;99.90;;;;;;5095753;28;20177;-83
2021/04/15 05:24:47;;;;;;;10.40;5.90;;;4.20;99.90;;;;;;5115660;28;20173;-83
2021/04/15 05:27:15;;;;;;;11.07;6.50;;;4.20;99.90;;;;;;5115616;28;20164;-83
2021/04/15 05:29:43;;;;;;;12.40;6.20;;;4.20;99.90;;;;;;5117208;28;20169;-83
2021/04/15 05:32:14;;;;;;;14.07;7.07;;;4.30;99.90;;;;;;5115693;28;20212;-82
2021/04/15 05:34:44;;;;;;;12.43;7.23;;;4.30;99.90;;;;;;5116610;28;20173;-83
2021/04/15 05:37:16;;;;;;;17.30;7.10;;;4.40;99.90;;;;;;5116634;28;20150;-83
2021/04/15 05:39:42;;;;;;;9.10;6.60;;;4.50;99.90;;;;;;5115221;27;20173;-83
2021/04/15 05:42:33;;;;;;;14.13;6.10;;;4.50;99.90;;;;;;5116619;28;20177;-82
2021/04/15 05:45:11;;;;;;;11.77;6.37;;;4.60;99.90;;;;;;5116611;28;20194;-83
2021/04/15 05:47:56;;;;;;;12.73;6.03;;;4.60;99.90;;;;;;5116490;28;20157;-84
2021/04/15 05:50:28;;;;;;;15.57;6.23;;;4.50;99.90;;;;;;5116548;28;20158;-81
2021/04/15 05:53:08;;;;;;;14.47;6.53;;;4.60;99.90;;;;;;5114895;28;20184;-81
2021/04/15 05:55:41;;;;;;;14.47;6.73;;;4.70;99.90;;;;;;5114890;28;20161;-81
2021/04/15 05:58:15;;;;;;;16.07;6.70;;;4.90;99.90;;;;;;5115137;28;20157;-82
2021/04/15 06:00:46;;;;;;;21.67;7.00;;;5.00;99.90;;;;;;5115144;28;20222;-80
2021/04/15 06:03:24;;;;;;;8.70;6.30;;;5.10;99.90;;;;;;5115808;28;20588;-79
2021/04/15 06:05:56;;;;;;;16.60;6.90;;;5.30;99.90;;;;;;5096062;28;20249;-80
2021/04/15 06:08:23;;;;;;;11.53;6.77;;;5.40;99.90;;;;;;5094779;28;20174;-80
2021/04/15 06:10:50;;;;;;;12.73;6.93;;;5.50;99.90;;;;;;5094371;28;20522;-80
2021/04/15 06:13:19;;;;;;;18.70;7.33;;;5.60;99.90;;;;;;5097737;28;20207;-80
2021/04/15 06:15:50;;;;;;;17.80;6.73;;;5.70;99.90;;;;;;5115842;28;20169;-80
2021/04/15 06:18:36;;;;;;;16.10;7.37;;;5.70;99.90;;;;;;5114637;28;20170;-80
2021/04/15 06:21:18;;;;;;;13.43;6.77;;;5.80;99.90;;;;;;5114420;28;20268;-79
2021/04/15 06:23:55;;;;;;;11.90;6.83;;;6.00;99.90;;;;;;5114319;28;20165;-80
2021/04/15 06:26:27;;;;;;;17.07;6.73;;;6.00;99.90;;;;;;5114383;28;20157;-81
2021/04/15 06:28:57;;;;;;;9.90;6.60;;;6.10;99.90;;;;;;5115677;28;20189;-85
2021/04/15 06:31:24;;;;;;;11.77;7.93;;;6.20;99.90;;;;;;5115666;28;20659;-82
2021/04/15 06:33:53;;;;;;;12.43;8.73;;;6.40;99.90;;;;;;5115324;28;20637;-81
2021/04/15 06:36:51;;;;;;;14.80;7.70;;;6.60;99.90;;;;;;5115662;28;20190;-82
2021/04/15 06:39:38;;;;;;;11.43;8.33;;;6.80;99.90;;;;;;5115692;28;20509;-82
2021/04/15 06:42:35;;;;;;;9.87;6.70;;;7.00;99.90;;;;;;5114158;28;20269;-82
2021/04/15 06:45:18;;;;;;;10.73;6.53;;;7.10;99.90;;;;;;5114851;28;20638;-82
2021/04/15 06:48:05;;;;;;;20.43;6.73;;;7.00;99.90;;;;;;5115140;28;20496;-82
2021/04/15 06:50:57;;;;;;;14.23;6.80;;;6.80;99.90;;;;;;5114909;28;20157;-82
2021/04/15 06:53:33;;;;;;;17.17;6.50;;;7.10;99.90;;;;;;5115360;28;20206;-81
2021/04/15 06:56:20;;;;;;;11.37;6.63;;;7.40;99.90;;;;;;5115004;28;20173;-82
2021/04/15 06:59:22;;;;;;;17.73;5.30;;;8.20;99.90;;;;;;5113844;28;20528;-83
2021/04/15 07:02:14;;;;;;;8.82;5.43;;;10.90;99.90;;;;;;5114391;28;20605;-82
2021/04/15 07:04:49;;;;;;;11.13;5.28;;;14.10;99.90;;;;;;5113643;28;20633;-83
2021/04/15 07:07:38;;;;;;;7.00;4.00;;;17.20;99.90;;;;;;5114919;28;20206;-83
2021/04/15 07:10:06;;;;;;;9.18;3.78;;;19.40;99.90;;;;;;5115104;28;20177;-84
2021/04/15 07:13:03;;;;;;;4.63;3.25;;;21.50;98.30;;;;;;5114680;28;20193;-85
2021/04/15 07:16:10;;;;;;;5.95;3.35;;;22.50;92.80;;;;;;5115018;28;20167;-86
2021/04/15 07:19:09;;;;;;;7.13;3.22;;;20.40;94.00;;;;;;5085962;28;20176;-83
2021/04/15 07:21:59;;;;;;;7.80;3.58;;;21.70;92.60;;;;;;5114941;28;20624;-82
2021/04/15 07:24:30;;;;;;;5.95;2.67;;;22.30;90.50;;;;;;5114484;28;20172;-81
2021/04/15 07:27:22;;;;;;;5.88;3.25;;;21.30;90.40;;;;;;5113193;28;20200;-82
2021/04/15 07:30:12;;;;;;;5.05;3.30;;;21.60;90.20;;;;;;5113313;28;20166;-82
2021/04/15 07:32:50;;;;;;;6.55;2.90;;;22.40;87.50;;;;;;5112913;28;20225;-83
2021/04/15 07:35:22;;;;;;;12.70;3.15;;;22.10;87.40;;;;;;5111916;28;20193;-84
2021/04/15 07:37:54;;;;;;;8.75;2.63;;;20.60;89.70;;;;;;5113951;28;20174;-83
2021/04/15 07:40:53;;;;;;;10.88;2.88;;;19.30;92.20;;;;;;5113496;28;20173;-86
2021/04/15 07:43:21;;;;;;;3.72;2.70;;;20.50;90.80;;;;;;5114042;28;20164;-84
2021/04/15 07:45:56;;;;;;;6.88;3.30;;;18.90;91.60;;;;;;5113885;28;20176;-86
2021/04/15 07:48:55;;;;;;;3.75;2.63;;;17.80;93.20;;;;;;5114299;28;20169;-85
2021/04/15 07:51:51;;;;;;;6.05;2.55;;;15.70;95.10;;;;;;5114235;28;20200;-87
2021/04/15 07:54:35;;;;;;;16.10;3.22;;;13.50;98.80;;;;;;5092786;28;20178;-82
2021/04/15 07:57:19;;;;;;;11.15;3.63;;;12.80;99.90;;;;;;5093855;28;20507;-81
2021/04/15 08:00:30;;;;;;;5.50;3.10;;;14.50;99.60;;;;;;5109097;28;20526;-84
2021/04/15 08:03:08;;;;;;;4.22;2.70;;;13.40;99.90;;;;;;5113322;28;20177;-83
2021/04/15 08:06:08;;;;;;;10.25;3.08;;;12.60;99.90;;;;;;5114348;28;20154;-90
2021/04/15 08:08:55;;;;;;;5.00;2.95;;;12.30;99.90;;;;;;5124920;28;20195;-84
2021/04/15 08:11:30;;;;;;;10.13;3.15;;;11.80;99.90;;;;;;5133443;27;20196;-85
2021/04/15 08:14:20;;;;;;;6.55;3.00;;;15.80;99.90;;;;;;5112892;28;20263;-85
2021/04/15 08:16:53;;;;;;;6.53;2.33;;;20.00;95.70;;;;;;5109290;28;20174;-86
2021/04/15 08:19:51;;;;;;;5.47;2.40;;;20.00;92.40;;;;;;5113742;28;20185;-86
2021/04/15 08:22:28;;;;;;;5.50;2.00;;;19.00;92.60;;;;;;5114251;28;20168;-86
2021/04/15 08:25:15;;;;;;;3.83;1.83;;;17.70;93.60;;;;;;5106218;28;20174;-85
2021/04/15 08:28:22;;;;;;;7.18;2.17;;;15.00;95.80;;;;;;5092649;28;20597;-85
2021/04/15 08:31:26;;;;;;;4.35;1.77;;;13.40;99.20;;;;;;5128958;28;20270;-85
2021/04/15 08:34:01;;;;;;;5.20;1.80;;;12.50;99.90;;;;;;5131620;27;20519;-85
2021/04/15 08:36:51;;;;;;;2.95;1.70;;;12.20;99.90;;;;;;5110627;28;20180;-84
2021/04/15 08:39:32;;;;;;;7.40;2.00;;;11.50;99.90;;;;;;5097120;28;20526;-82
2021/04/15 08:42:23;;;;;;;5.80;1.70;;;11.10;99.90;;;;;;5095156;28;20176;-83
2021/04/15 08:45:30;;;;;;;5.43;1.20;;;10.70;99.90;;;;;;5099649;28;20185;-84
2021/04/15 08:48:10;;;;;;;7.45;1.88;;;10.40;99.90;;;;;;5105736;28;20196;-84
2021/04/15 08:50:58;;;;;;;7.65;1.95;;;10.00;99.90;;;;;;5099002;28;20173;-82
2021/04/15 08:53:33;;;;;;;9.90;2.65;;;10.70;99.90;;;;;;5101144;28;20192;-84
2021/04/15 08:56:06;;;;;;;7.30;1.70;;;11.10;99.90;;;;;;5113154;28;20165;-82
2021/04/15 08:59:02;;;;;;;3.30;2.20;;;11.50;99.90;;;;;;5108672;28;20171;-82
2021/04/15 09:01:33;;;;;;;15.63;2.40;;;11.80;99.90;;;;;;5103306;28;20518;-81
2021/04/15 09:04:19;;;;;;;10.68;2.22;;;12.00;99.90;;;;;;5113318;28;20534;-77
2021/04/15 09:07:09;;;;;;;4.00;1.63;;;12.10;99.90;;;;;;5106081;28;20185;-77
2021/04/15 09:09:51;;;;;;;8.02;2.20;;;12.20;99.90;;;;;;5112257;28;20211;-78
2021/04/15 09:12:25;;;;;;;5.78;2.03;;;13.00;99.90;;;;;;5093061;28;20535;-76
2021/04/15 09:15:09;;;;;;;7.50;2.55;;;17.50;98.90;;;;;;5094625;28;20213;-77
2021/04/15 09:17:41;;;;;;;8.98;1.65;;;21.50;93.50;;;;;;5099044;28;20181;-77
2021/04/15 09:20:34;;;;;;;4.93;1.60;;;25.30;83.60;;;;;;5101208;27;20173;-77
2021/04/15 09:23:17;;;;;;;7.32;1.40;;;24.70;75.60;;;;;;5105988;28;20705;-77
2021/04/15 09:26:17;;;;;;;5.63;1.60;;;24.50;80.90;;;;;;5117069;28;20164;-77
2021/04/15 09:28:49;;;;;;;4.00;1.90;;;26.20;73.20;;;;;;5115509;27;20697;-77
2021/04/15 09:31:34;;;;;;;9.38;1.45;;;27.70;71.40;;;;;;5101162;28;20240;-77
2021/04/15 09:33:59;;;;;;;2.78;1.23;;;29.20;63.50;;;;;;5096681;28;20182;-74
2021/04/15 09:36:52;;;;;;;3.15;1.80;;;27.20;63.20;;;;;;5101351;28;20174;-74
2021/04/15 09:39:57;;;;;;;4.13;1.27;;;23.50;67.80;;;;;;5111772;27;20174;-74
2021/04/15 09:42:28;;;;;;;2.38;1.10;;;22.10;72.80;;;;;;5094527;28;20262;-74
2021/04/15 09:45:22;;;;;;;2.20;1.10;;;19.10;77.00;;;;;;5106222;27;20254;-76
2021/04/15 09:48:15;;;;;;;1.75;0.95;;;16.80;82.30;;;;;;5096255;28;20253;-76
2021/04/15 09:51:20;;;;;;;3.42;1.50;;;15.00;87.70;;;;;;5101352;27;20210;-77
2021/04/15 09:53:51;;;;;;;4.72;2.03;;;13.00;91.80;;;;;;5097971;28;20269;-76
2021/04/15 09:56:45;;;;;;;10.10;2.47;;;10.90;97.50;;;;;;5101142;28;20255;-77
2021/04/15 09:59:29;;;;;;;6.43;2.80;;;9.80;99.90;;;;;;5113895;28;20165;-76
2021/04/15 10:02:21;;;;;;;5.07;3.05;;;8.80;99.90;;;;;;5107439;27;20181;-77
2021/04/15 10:05:07;;;;;;;3.47;3.17;;;8.10;99.90;;;;;;5112258;28;20197;-76
2021/04/15 10:07:47;;;;;;;8.88;3.53;;;8.00;99.90;;;;;;5095937;28;20204;-76
2021/04/15 10:10:26;;;;;;;4.32;3.40;;;8.40;99.90;;;;;;5100963;27;20184;-76
2021/04/15 10:13:13;;;;;;;9.68;3.63;;;9.00;99.90;;;;;;5116157;28;20169;-76
2021/04/15 10:15:49;;;;;;;5.53;3.08;;;9.50;99.90;;;;;;5109625;28;20227;-76
2021/04/15 10:18:35;;;;;;;6.22;3.63;;;10.00;99.90;;;;;;5094277;28;20537;-76
2021/04/15 10:21:07;;;;;;;5.60;3.85;;;10.90;99.90;;;;;;5094324;28;20344;-76
2021/04/15 10:23:59;;;;;;;3.95;3.08;;;11.70;99.90;;;;;;5096998;28;20209;-76
2021/04/15 10:27:00;;;;;;;3.95;2.90;;;12.60;99.90;;;;;;5104827;28;20181;-76
2021/04/15 10:29:28;;;;;;;3.25;3.00;;;13.70;99.90;;;;;;5109343;28;20177;-76
2021/04/15 10:32:09;;;;;;;2.80;2.38;;;14.90;99.90;;;;;;5115232;28;20217;-77
2021/04/15 10:34:49;;;;;;;5.38;2.85;;;16.40;99.90;;;;;;5115477;28;20168;-76
2021/04/15 10:37:42;;;;;;;6.47;3.30;;;17.10;99.90;;;;;;5114491;27;20212;-76
2021/04/15 10:40:31;;;;;;;5.72;3.85;;;16.60;98.80;;;;;;5098266;28;20181;-77
2021/04/15 10:43:24;;;;;;;8.43;3.33;;;18.10;96.60;;;;;;5093714;28;20185;-77
2021/04/15 10:46:19;;;;;;;4.07;2.78;;;20.00;93.70;;;;;;5093372;27;20634;-76
2021/04/15 10:49:15;;;;;;;11.45;2.83;;;24.00;86.00;;;;;;5097529;27;20172;-77
2021/04/15 10:52:01;;;;;;;4.47;2.67;;;27.20;74.40;;;;;;5113429;27;20197;-74
2021/04/15 10:54:32;;;;;;;7.57;2.85;;;28.80;71.70;;;;;;5110696;28;20189;-74
2021/04/15 10:57:01;;;;;;;7.53;2.00;;;30.00;63.70;;;;;;5098237;28;20320;-73
2021/04/15 10:59:36;;;;;;;4.20;2.35;;;26.80;63.60;;;;;;5094813;28;20167;-73
2021/04/15 11:02:24;;;;;;;4.30;2.58;;;27.90;65.00;;;;;;5096306;28;20490;-73
2021/04/15 11:04:52;;;;;;;4.43;1.83;;;30.50;61.00;;;;;;5114118;28;20162;-73
2021/04/15 11:07:23;;;;;;;9.00;1.83;;;31.30;59.20;;;;;;5098064;28;20193;-74
2021/04/15 11:09:51;;;;;;;5.60;1.60;;;30.10;57.80;;;;;;5114033;28;20207;-74
2021/04/15 11:12:22;;;;;;;5.47;1.63;;;23.10;63.30;;;;;;5119537;27;20249;-74
2021/04/15 11:14:51;;;;;;;3.88;1.50;;;23.10;66.50;;;;;;5124997;27;20166;-74
2021/04/15 11:17:28;;;;;;;2.95;1.45;;;22.30;64.50;;;;;;5108985;28;20655;-74
2021/04/15 11:20:23;;;;;;;4.20;1.38;;;23.50;64.00;;;;;;5114658;28;20153;-73
2021/04/15 11:23:06;;;;;;;1.77;1.35;;;22.30;64.20;;;;;;5114014;28;20605;-74
2021/04/15 11:25:43;;;;;;;3.08;1.50;;;21.40;69.30;;;;;;5114363;28;20166;-74
2021/04/15 11:28:31;;;;;;;2.72;1.88;;;21.20;70.80;;;;;;5114125;28;20610;-74
2021/04/15 11:31:09;;;;;;;5.05;1.52;;;23.40;67.10;;;;;;5113244;28;20295;-74
2021/04/15 11:33:53;;;;;;;1.63;1.38;;;24.50;63.90;;;;;;5112351;28;20200;-74
2021/04/15 11:36:33;;;;;;;2.10;1.42;;;22.50;66.20;;;;;;5094436;28;20635;-74
2021/04/15 11:39:05;;;;;;;7.38;2.00;;;20.20;70.90;;;;;;5113448;28;20169;-74
2021/04/15 11:41:33;;;;;;;6.88;1.73;;;19.30;74.40;;;;;;5112985;28;20208;-74
2021/04/15 11:44:13;;;;;;;2.90;1.42;;;21.10;72.90;;;;;;5114064;28;20169;-74
2021/04/15 11:46:47;;;;;;;2.05;1.20;;;21.50;66.80;;;;;;5113278;28;20184;-73
2021/04/15 11:49:19;;;;;;;3.88;1.60;;;19.20;71.40;;;;;;5093823;28;20169;-76
2021/04/15 11:51:59;;;;;;;4.30;1.83;;;21.30;69.90;;;;;;5093839;28;20202;-76
2021/04/15 11:54:33;;;;;;;6.93;1.52;;;20.80;69.70;;;;;;5111641;28;20179;-76
2021/04/15 11:57:19;;;;;;;6.60;1.92;;;19.70;71.40;;;;;;5114272;28;20605;-76
2021/04/15 12:00:00;;;;;;;3.58;2.28;;;17.80;74.00;;;;;;5078391;28;20231;-77
2021/04/15 12:02:39;;;;;;;4.20;2.00;;;15.40;81.20;;;;;;5099230;28;20183;-76
2021/04/15 12:05:31;;;;;;;4.40;2.67;;;14.00;89.30;;;;;;5102910;28;20173;-76
2021/04/15 12:08:20;;;;;;;7.15;2.40;;;13.10;91.30;;;;;;5112132;28;20162;-76
2021/04/15 12:11:04;;;;;;;2.42;1.83;;;12.60;91.70;;;;;;5113927;28;20241;-76
2021/04/15 12:13:46;;;;;;;2.13;1.80;;;12.20;93.60;;;;;;5113987;28;20232;-76
2021/04/15 12:16:29;;;;;;;5.00;1.63;;;12.10;95.00;;;;;;5112189;28;20168;-76
2021/04/15 12:19:00;;;;;;;5.97;2.17;;;11.70;94.60;;;;;;5113874;28;20169;-76
2021/04/15 12:21:32;;;;;;;4.45;2.20;;;11.60;98.30;;;;;;5113906;28;20218;-76
2021/04/15 12:24:07;;;;;;;2.80;2.00;;;11.80;96.60;;;;;;5113842;28;20515;-76
2021/04/15 12:26:50;;;;;;;5.90;2.30;;;12.00;95.30;;;;;;5113670;28;20165;-76
2021/04/15 12:29:22;;;;;;;4.53;2.30;;;11.90;95.00;;;;;;5113990;28;20161;-76
2021/04/15 12:31:52;;;;;;;6.50;1.98;;;11.90;94.80;;;;;;5113319;28;20204;-76
2021/04/15 12:34:24;;;;;;;4.85;2.05;;;12.00;94.00;;;;;;5113778;28;20514;-74
2021/04/15 12:37:20;;;;;;;3.05;2.00;;;12.20;94.50;;;;;;5113117;28;20173;-73
2021/04/15 12:40:06;;;;;;;3.72;2.13;;;12.50;92.80;;;;;;5112420;28;20611;-75
2021/04/15 12:42:38;;;;;;;7.78;2.15;;;13.20;92.50;;;;;;5112816;28;20546;-73
2021/04/15 12:45:12;;;;;;;5.25;2.78;;;13.80;91.80;;;;;;5113211;28;20212;-74
2021/04/15 12:47:41;;;;;;;3.20;2.08;;;13.70;91.60;;;;;;5112443;28;20165;-74
2021/04/15 12:50:08;;;;;;;2.97;1.75;;;13.60;91.60;;;;;;5116390;28;20272;-75
2021/04/15 12:52:36;;;;;;;3.75;1.75;;;12.90;92.10;;;;;;5117214;28;20197;-76
2021/04/15 12:55:10;;;;;;;3.17;2.55;;;12.10;93.70;;;;;;5117268;28;20201;-76
2021/04/15 12:57:35;;;;;;;6.53;2.10;;;12.10;93.70;;;;;;5117109;28;20217;-76
2021/04/15 13:00:08;;;;;;;6.93;2.22;;;12.80;93.90;;;;;;5117810;28;20593;-76
2021/04/15 13:02:35;;;;;;;3.67;1.92;;;12.30;92.40;;;;;;5116734;28;20201;-76
2021/04/15 13:05:01;;;;;;;5.30;2.00;;;12.60;92.20;;;;;;5099466;28;20238;-76
2021/04/15 13:07:34;;;;;;;4.03;1.85;;;12.40;92.90;;;;;;5116959;28;20256;-76
2021/04/15 13:10:18;;;;;;;3.90;2.28;;;12.50;91.60;;;;;;5117157;28;20514;-76
2021/04/15 13:12:51;;;;;;;6.18;2.50;;;11.80;91.90;;;;;;5115063;28;20665;-76
2021/04/15 13:15:23;;;;;;;4.15;1.80;;;11.70;92.30;;;;;;5115589;28;20169;-76
2021/04/15 13:17:54;;;;;;;7.03;1.80;;;11.60;91.70;;;;;;5110974;28;20165;-76
2021/04/15 13:20:19;;;;;;;1.80;1.30;;;11.70;91.60;;;;;;5117184;28;20177;-76
2021/04/15 13:22:49;;;;;;;7.10;1.80;;;11.70;89.30;;;;;;5115200;28;20212;-76
2021/04/15 13:25:29;;;;;;;6.38;1.60;;;11.40;91.30;;;;;;5111496;28;20260;-77
2021/04/15 13:27:58;;;;;;;4.18;1.90;;;11.50;92.20;;;;;;5116251;28;20165;-76
2021/04/15 13:30:50;;;;;;;4.10;1.63;;;11.80;91.10;;;;;;5116269;28;20682;-75
2021/04/15 13:33:31;;;;;;;6.15;1.95;;;12.30;91.40;;;;;;5116403;28;20185;-74
2021/04/15 13:36:00;;;;;;;1.77;1.60;;;12.30;90.60;;;;;;5115325;28;20177;-76
2021/04/15 13:38:32;;;;;;;5.80;1.95;;;12.10;90.80;;;;;;5114652;28;20169;-77
2021/04/15 13:41:11;;;;;;;3.88;1.70;;;12.10;91.10;;;;;;5116462;28;20185;-77
2021/04/15 13:43:46;;;;;;;3.80;2.10;;;12.20;90.30;;;;;;5116479;28;20168;-80
2021/04/15 13:46:21;;;;;;;5.80;2.15;;;12.70;90.40;;;;;;5115136;28;20221;-74
2021/04/15 13:48:50;;;;;;;2.83;1.88;;;12.90;89.10;;;;;;5114877;28;20168;-73